Bridgeton, MO (63044)

3:52 PM CST on February 06, 2016 (GMT -0600)
Earth City | | Change Station
CLOSE
Current Station
Personal Weather Station
Location: Earth City, MO
Elevation: 482 ft
Nearby Weather Stations

Elev 482 ft 38.75 °N, 90.45 °W | Updated 1 minute ago

Scattered Clouds
Scattered Clouds
55.7 °F
Feels Like 55.7 °F
N
0.0
Wind Variable Wind from East
Gusts 8.0 mph

Today
High -- | Low -- °F
--% Chance of Precip.
Yesterday
High -- | Low -- °F
Precip. -- in
Pressure 30.22 in
Visibility 10.0 miles
Clouds Few 5000 ft
Scattered Clouds 20000 ft
Dew Point 30 °F
Humidity 38%
Rainfall 0.00 in
Snow Depth Not available.
7:03 AM 5:28 PM
Waning Crescent, 4% visible
METAR KSTL 062051Z 26012G22KT 10SM FEW050 SCT200 14/M03 A3021 RMK AO2 SLP234 T01391028 56025 $
Pressure 30.22 in
Visibility 10.0 miles
Clouds Few 5000 ft
Scattered Clouds 20000 ft
Dew Point 30 °F
Humidity 38%
Rainfall 0.00 in
Snow Depth Not available.
7:03 AM 5:28 PM
Waning Crescent, 4% visible
METAR KSTL 062051Z 26012G22KT 10SM FEW050 SCT200 14/M03 A3021 RMK AO2 SLP234 T01391028 56025 $

10-Day Weather Forecast

Almanac

Astronomy

Feb. 06, 2016 Rise Set
Actual Time
Civil Twilight
Nautical Twilight
Astronomical Twilight
Moon
Length of Visible Light
Length of Day
Tomorrow will be .
, % of the Moon is Illuminated

Today's Extremes

State Highs State Lows

Community

WunderPhotos

Upload Photos

1,891,051 photos uploaded!

WunderBlog® & News

Nearby

Air Quality

  Air Quality AQ Index Pollutant
Not available.

Snow Depth

Station Depth Elevation

Earthquake Activity

City Distance Mag. Time & Date
Minimum magnitude displayed is 2.5.

Coastal Water Temperatures

Place Temperature

Stations

Nearby Weather Stations

Station Location Temp. Windchill Dew Point Humidity Wind Precip. Elev Updated Type
                   

Watches & Warnings

There are currently no watches in effect.